sensor_id;sensor_type;location;lat;lon;timestamp;pressure;altitude;pressure_sealevel;temperature;humidity
51972;BME280;37991;49.662;10.060;2022-12-18T10:36:09;100769.06;;;15.68;52.26
51972;BME280;37991;49.662;10.060;2022-12-18T10:38:35;100764.28;;;16.85;54.09
51972;BME280;37991;49.662;10.060;2022-12-18T10:41:01;100755.53;;;18.66;49.78
51972;BME280;37991;49.662;10.060;2022-12-18T10:59:50;100743.25;;;8.60;43.56
51972;BME280;37991;49.662;10.060;2022-12-18T11:02:37;100754.97;;;5.25;50.31
51972;BME280;37991;49.662;10.060;2022-12-18T11:05:26;100752.84;;;2.43;55.77
51972;BME280;37991;49.662;10.060;2022-12-18T11:10:37;100759.34;;;0.05;66.08
51972;BME280;37991;49.662;10.060;2022-12-18T11:13:18;100760.47;;;-0.76;68.05
51972;BME280;37991;49.662;10.060;2022-12-18T11:15:45;100744.19;;;-1.13;69.45
51972;BME280;37991;49.662;10.060;2022-12-18T11:18:23;100743.28;;;-1.61;71.53
51972;BME280;37991;49.662;10.060;2022-12-18T11:20:51;100751.78;;;-1.87;72.21
51972;BME280;37991;49.662;10.060;2022-12-18T11:23:18;100738.88;;;-2.09;74.51
51972;BME280;37991;49.662;10.060;2022-12-18T11:26:00;100733.69;;;-2.17;75.38
51972;BME280;37991;49.662;10.060;2022-12-18T11:28:47;100727.59;;;-2.42;76.18
51972;BME280;37991;49.662;10.060;2022-12-18T11:31:24;100714.75;;;-2.48;76.55
51972;BME280;37991;49.662;10.060;2022-12-18T11:33:58;100713.88;;;-2.50;77.18
51972;BME280;37991;49.662;10.060;2022-12-18T11:36:29;100706.13;;;-2.57;77.35
51972;BME280;37991;49.662;10.060;2022-12-18T11:38:59;100708.72;;;-2.55;77.94
51972;BME280;37991;49.662;10.060;2022-12-18T11:41:43;100707.81;;;-2.59;78.00
51972;BME280;37991;49.662;10.060;2022-12-18T11:44:40;100714.63;;;-2.65;78.67
51972;BME280;37991;49.662;10.060;2022-12-18T11:47:21;100712.09;;;-2.64;78.60
51972;BME280;37991;49.662;10.060;2022-12-18T11:49:51;100717.16;;;-2.76;79.13
51972;BME280;37991;49.662;10.060;2022-12-18T11:52:38;100713.69;;;-2.81;79.46
51972;BME280;37991;49.662;10.060;2022-12-18T11:55:11;100719.69;;;-2.74;79.49
51972;BME280;37991;49.662;10.060;2022-12-18T12:00:17;100727.41;;;-2.71;79.53
51972;BME280;37991;49.662;10.060;2022-12-18T12:05:41;100716.31;;;-2.73;79.77
51972;BME280;37991;49.662;10.060;2022-12-18T12:08:26;100703.50;;;-2.70;80.00
51972;BME280;37991;49.662;10.060;2022-12-18T12:13:56;100696.66;;;-2.70;80.58
51972;BME280;37991;49.662;10.060;2022-12-18T12:22:31;100682.13;;;-2.66;79.95
51972;BME280;37991;49.662;10.060;2022-12-18T12:30:20;100662.47;;;-2.67;80.63
51972;BME280;37991;49.662;10.060;2022-12-18T12:33:13;100656.50;;;-2.63;80.63
51972;BME280;37991;49.662;10.060;2022-12-18T12:35:59;100648.81;;;-2.60;81.00
51972;BME280;37991;49.662;10.060;2022-12-18T12:38:44;100647.09;;;-2.61;80.59
51972;BME280;37991;49.662;10.060;2022-12-18T12:41:18;100648.81;;;-2.62;80.71
51972;BME280;37991;49.662;10.060;2022-12-18T12:44:05;100667.63;;;-2.61;80.41
51972;BME280;37991;49.662;10.060;2022-12-18T12:46:37;100668.47;;;-2.61;80.99
51972;BME280;37991;49.662;10.060;2022-12-18T12:49:12;100664.19;;;-2.63;81.07
51972;BME280;37991;49.662;10.060;2022-12-18T12:51:42;100667.63;;;-2.60;80.85
51972;BME280;37991;49.662;10.060;2022-12-18T12:54:18;100675.34;;;-2.53;80.76
51972;BME280;37991;49.662;10.060;2022-12-18T12:56:51;100678.78;;;-2.54;80.73
51972;BME280;37991;49.662;10.060;2022-12-18T12:59:26;100683.06;;;-2.53;80.52
51972;BME280;37991;49.662;10.060;2022-12-18T13:07:26;100657.41;;;-2.47;80.92
51972;BME280;37991;49.662;10.060;2022-12-18T13:12:58;100658.28;;;-2.48;80.83
51972;BME280;37991;49.662;10.060;2022-12-18T13:15:43;100663.41;;;-2.47;80.96
51972;BME280;37991;49.662;10.060;2022-12-18T13:20:43;100648.81;;;-2.55;81.36
51972;BME280;37991;49.662;10.060;2022-12-18T13:23:25;100648.84;;;-2.51;81.73
51972;BME280;37991;49.662;10.060;2022-12-18T13:31:00;100637.75;;;-2.47;81.01
51972;BME280;37991;49.662;10.060;2022-12-18T13:35:55;100638.59;;;-2.46;81.01
51972;BME280;37991;49.662;10.060;2022-12-18T13:45:49;100633.41;;;-2.59;81.89
51972;BME280;37991;49.662;10.060;2022-12-18T13:48:23;100636.84;;;-2.57;81.51
51972;BME280;37991;49.662;10.060;2022-12-18T13:50:56;100629.13;;;-2.60;81.48
51972;BME280;37991;49.662;10.060;2022-12-18T13:53:26;100623.13;;;-2.68;81.52
51972;BME280;37991;49.662;10.060;2022-12-18T13:55:53;100625.72;;;-2.62;81.88
51972;BME280;37991;49.662;10.060;2022-12-18T13:58:19;100623.97;;;-2.66;81.66
51972;BME280;37991;49.662;10.060;2022-12-18T14:00:44;100611.16;;;-2.63;81.76
51972;BME280;37991;49.662;10.060;2022-12-18T14:03:24;100609.47;;;-2.64;82.00
51972;BME280;37991;49.662;10.060;2022-12-18T14:06:07;100614.56;;;-2.70;82.32
51972;BME280;37991;49.662;10.060;2022-12-18T14:08:38;100610.28;;;-2.71;82.25
51972;BME280;37991;49.662;10.060;2022-12-18T14:11:05;100623.09;;;-2.72;82.42
51972;BME280;37991;49.662;10.060;2022-12-18T14:13:40;100626.50;;;-2.75;82.21
51972;BME280;37991;49.662;10.060;2022-12-18T14:16:07;100630.81;;;-2.74;82.75
51972;BME280;37991;49.662;10.060;2022-12-18T14:18:43;100633.38;;;-2.74;82.28
51972;BME280;37991;49.662;10.060;2022-12-18T14:21:25;100631.63;;;-2.75;82.56
51972;BME280;37991;49.662;10.060;2022-12-18T14:24:12;100639.31;;;-2.79;82.54
51972;BME280;37991;49.662;10.060;2022-12-18T14:26:38;100644.44;;;-2.83;82.62
51972;BME280;37991;49.662;10.060;2022-12-18T14:29:28;100646.97;;;-2.81;82.68
51972;BME280;37991;49.662;10.060;2022-12-18T14:32:05;100650.38;;;-2.90;82.66
51972;BME280;37991;49.662;10.060;2022-12-18T14:34:31;100663.19;;;-2.93;82.99
51972;BME280;37991;49.662;10.060;2022-12-18T14:36:56;100663.16;;;-2.94;82.94
51972;BME280;37991;49.662;10.060;2022-12-18T14:39:21;100664.84;;;-2.99;83.13
51972;BME280;37991;49.662;10.060;2022-12-18T14:41:50;100671.66;;;-3.05;83.64
51972;BME280;37991;49.662;10.060;2022-12-18T14:44:15;100669.97;;;-3.02;83.56
51972;BME280;37991;49.662;10.060;2022-12-18T14:46:48;100664.81;;;-3.06;83.56
51972;BME280;37991;49.662;10.060;2022-12-18T14:49:24;100663.97;;;-3.06;83.50
51972;BME280;37991;49.662;10.060;2022-12-18T14:51:56;100663.06;;;-3.16;83.23
51972;BME280;37991;49.662;10.060;2022-12-18T14:54:23;100669.03;;;-3.15;83.58
51972;BME280;37991;49.662;10.060;2022-12-18T14:56:54;100663.84;;;-3.21;83.53
51972;BME280;37991;49.662;10.060;2022-12-18T14:59:25;100668.97;;;-3.23;83.68
51972;BME280;37991;49.662;10.060;2022-12-18T15:02:03;100656.97;;;-3.29;83.44
51972;BME280;37991;49.662;10.060;2022-12-18T15:04:38;100664.63;;;-3.35;83.43
51972;BME280;37991;49.662;10.060;2022-12-18T15:07:25;100664.56;;;-3.39;83.12
51972;BME280;37991;49.662;10.060;2022-12-18T15:10:10;100654.31;;;-3.41;83.34
51972;BME280;37991;49.662;10.060;2022-12-18T15:12:47;100657.66;;;-3.48;82.94
51972;BME280;37991;49.662;10.060;2022-12-18T15:20:58;100678.78;;;-3.74;82.44
51972;BME280;37991;49.662;10.060;2022-12-18T15:23:27;100679.56;;;-3.82;82.45
51972;BME280;37991;49.662;10.060;2022-12-18T15:26:15;100682.00;;;-3.94;82.28
51972;BME280;37991;49.662;10.060;2022-12-18T15:28:56;100680.25;;;-4.00;82.56
51972;BME280;37991;49.662;10.060;2022-12-18T15:31:29;100681.00;;;-4.10;82.32
51972;BME280;37991;49.662;10.060;2022-12-18T15:36:22;100680.88;;;-4.21;82.23
51972;BME280;37991;49.662;10.060;2022-12-18T15:38:49;100671.34;;;-4.33;82.51
51972;BME280;37991;49.662;10.060;2022-12-18T15:41:16;100669.63;;;-4.35;82.64
51972;BME280;37991;49.662;10.060;2022-12-18T15:43:42;100665.28;;;-4.42;82.56
51972;BME280;37991;49.662;10.060;2022-12-18T15:48:45;100669.38;;;-4.55;82.56
51972;BME280;37991;49.662;10.060;2022-12-18T15:53:44;100677.75;;;-4.69;82.85
51972;BME280;37991;49.662;10.060;2022-12-18T15:56:11;100672.59;;;-4.70;82.89
51972;BME280;37991;49.662;10.060;2022-12-18T15:58:55;100675.97;;;-4.74;83.01
51972;BME280;37991;49.662;10.060;2022-12-18T16:01:23;100675.81;;;-4.83;83.17
51972;BME280;37991;49.662;10.060;2022-12-18T16:03:48;100678.34;;;-4.86;82.91
51972;BME280;37991;49.662;10.060;2022-12-18T16:06:13;100677.41;;;-4.92;83.27
51972;BME280;37991;49.662;10.060;2022-12-18T16:08:39;100674.84;;;-4.93;83.25
51972;BME280;37991;49.662;10.060;2022-12-18T16:11:05;100671.38;;;-4.97;83.37
51972;BME280;37991;49.662;10.060;2022-12-18T16:13:30;100667.06;;;-5.01;83.97
51972;BME280;37991;49.662;10.060;2022-12-18T16:15:56;100655.09;;;-5.03;84.33
51972;BME280;37991;49.662;10.060;2022-12-18T16:18:21;100667.84;;;-5.05;84.23
51972;BME280;37991;49.662;10.060;2022-12-18T16:20:47;100654.28;;;-5.01;84.72
51972;BME280;37991;49.662;10.060;2022-12-18T16:23:12;100648.25;;;-5.06;84.95
51972;BME280;37991;49.662;10.060;2022-12-18T16:25:37;100652.50;;;-5.06;85.42
51972;BME280;37991;49.662;10.060;2022-12-18T16:28:04;100653.38;;;-5.06;85.52
51972;BME280;37991;49.662;10.060;2022-12-18T16:30:30;100649.91;;;-5.08;85.58
51972;BME280;37991;49.662;10.060;2022-12-18T16:32:57;100654.16;;;-5.08;85.52
51972;BME280;37991;49.662;10.060;2022-12-18T16:35:25;100652.47;;;-5.08;85.55
51972;BME280;37991;49.662;10.060;2022-12-18T16:37:51;100657.63;;;-5.06;85.40
51972;BME280;37991;49.662;10.060;2022-12-18T16:40:17;100655.06;;;-5.05;85.76
51972;BME280;37991;49.662;10.060;2022-12-18T16:42:44;100649.13;;;-5.04;85.86
51972;BME280;37991;49.662;10.060;2022-12-18T16:45:15;100655.91;;;-5.04;85.67
51972;BME280;37991;49.662;10.060;2022-12-18T16:47:41;100653.31;;;-5.07;85.84
51972;BME280;37991;49.662;10.060;2022-12-18T16:50:07;100649.88;;;-5.12;85.86
51972;BME280;37991;49.662;10.060;2022-12-18T16:52:33;100653.22;;;-5.17;86.10
51972;BME280;37991;49.662;10.060;2022-12-18T16:54:59;100650.66;;;-5.17;86.19
51972;BME280;37991;49.662;10.060;2022-12-18T16:57:24;100649.72;;;-5.20;86.22
51972;BME280;37991;49.662;10.060;2022-12-18T16:59:50;100659.94;;;-5.20;86.82
51972;BME280;37991;49.662;10.060;2022-12-18T17:02:20;100652.19;;;-5.28;86.72
51972;BME280;37991;49.662;10.060;2022-12-18T17:04:46;100647.94;;;-5.27;86.82
51972;BME280;37991;49.662;10.060;2022-12-18T17:07:13;100649.66;;;-5.26;87.02
51972;BME280;37991;49.662;10.060;2022-12-18T17:09:39;100647.97;;;-5.24;87.16
51972;BME280;37991;49.662;10.060;2022-12-18T17:12:05;100642.06;;;-5.20;87.06
51972;BME280;37991;49.662;10.060;2022-12-18T17:14:31;100625.03;;;-5.21;87.06
51972;BME280;37991;49.662;10.060;2022-12-18T17:16:57;100622.44;;;-5.24;87.47
51972;BME280;37991;49.662;10.060;2022-12-18T17:19:24;100621.63;;;-5.20;87.34
51972;BME280;37991;49.662;10.060;2022-12-18T17:21:51;100620.84;;;-5.16;87.46
51972;BME280;37991;49.662;10.060;2022-12-18T17:24:16;100618.31;;;-5.15;87.24
51972;BME280;37991;49.662;10.060;2022-12-18T17:26:42;100614.03;;;-5.16;87.78
51972;BME280;37991;49.662;10.060;2022-12-18T17:29:09;100620.84;;;-5.15;87.62
51972;BME280;37991;49.662;10.060;2022-12-18T17:31:36;100617.38;;;-5.21;88.03
51972;BME280;37991;49.662;10.060;2022-12-18T17:34:03;100616.50;;;-5.20;87.89
51972;BME280;37991;49.662;10.060;2022-12-18T17:36:29;100620.81;;;-5.19;87.88
51972;BME280;37991;49.662;10.060;2022-12-18T17:38:59;100623.38;;;-5.19;88.37
51972;BME280;37991;49.662;10.060;2022-12-18T17:41:26;100616.50;;;-5.23;88.65
51972;BME280;37991;49.662;10.060;2022-12-18T17:46:23;100622.44;;;-5.24;88.48
51972;BME280;37991;49.662;10.060;2022-12-18T17:48:50;100619.91;;;-5.23;88.86
51972;BME280;37991;49.662;10.060;2022-12-18T17:51:16;100627.53;;;-5.24;89.23
51972;BME280;37991;49.662;10.060;2022-12-18T17:53:42;100627.50;;;-5.27;88.98
51972;BME280;37991;49.662;10.060;2022-12-18T17:56:10;100630.09;;;-5.26;89.06
51972;BME280;37991;49.662;10.060;2022-12-18T17:58:36;100630.88;;;-5.28;89.57
51972;BME280;37991;49.662;10.060;2022-12-18T18:01:03;100619.88;;;-5.26;89.42
51972;BME280;37991;49.662;10.060;2022-12-18T18:03:28;100617.31;;;-5.24;89.79
51972;BME280;37991;49.662;10.060;2022-12-18T18:05:56;100617.31;;;-5.24;89.78
51972;BME280;37991;49.662;10.060;2022-12-18T18:08:22;100619.91;;;-5.21;90.11
51972;BME280;37991;49.662;10.060;2022-12-18T18:10:47;100630.97;;;-5.22;89.92
51972;BME280;37991;49.662;10.060;2022-12-18T18:13:24;100627.59;;;-5.21;90.24
51972;BME280;37991;49.662;10.060;2022-12-18T18:16:09;100635.28;;;-5.20;90.47
51972;BME280;37991;49.662;10.060;2022-12-18T18:18:34;100633.63;;;-5.16;90.38
51972;BME280;37991;49.662;10.060;2022-12-18T18:21:07;100628.53;;;-5.16;90.33
51972;BME280;37991;49.662;10.060;2022-12-18T18:23:33;100634.56;;;-5.09;90.40
51972;BME280;37991;49.662;10.060;2022-12-18T18:26:06;100632.81;;;-5.12;90.24
51972;BME280;37991;49.662;10.060;2022-12-18T18:28:33;100631.13;;;-5.11;90.44
51972;BME280;37991;49.662;10.060;2022-12-18T18:31:07;100626.91;;;-5.09;90.29
51972;BME280;37991;49.662;10.060;2022-12-18T18:33:33;100630.34;;;-5.06;90.27
51972;BME280;37991;49.662;10.060;2022-12-18T18:35:58;100625.25;;;-5.04;89.93
51972;BME280;37991;49.662;10.060;2022-12-18T18:38:24;100627.84;;;-5.03;89.93
51972;BME280;37991;49.662;10.060;2022-12-18T18:41:00;100632.06;;;-5.06;90.01
51972;BME280;37991;49.662;10.060;2022-12-18T18:43:26;100621.84;;;-5.06;90.60
51972;BME280;37991;49.662;10.060;2022-12-18T18:45:59;100615.78;;;-5.11;90.14
51972;BME280;37991;49.662;10.060;2022-12-18T18:48:25;100598.72;;;-5.16;90.86
51972;BME280;37991;49.662;10.060;2022-12-18T18:50:58;100605.59;;;-5.10;90.54
51972;BME280;37991;49.662;10.060;2022-12-18T18:53:24;100599.66;;;-5.09;90.36
51972;BME280;37991;49.662;10.060;2022-12-18T18:55:49;100603.81;;;-5.16;90.57
51972;BME280;37991;49.662;10.060;2022-12-18T18:58:15;100591.00;;;-5.19;90.31
51972;BME280;37991;49.662;10.060;2022-12-18T19:00:40;100590.16;;;-5.18;90.58
51972;BME280;37991;49.662;10.060;2022-12-18T19:03:05;100595.31;;;-5.15;90.52
51972;BME280;37991;49.662;10.060;2022-12-18T19:05:31;100585.94;;;-5.16;90.33
51972;BME280;37991;49.662;10.060;2022-12-18T19:07:57;100573.06;;;-5.22;90.62
51972;BME280;37991;49.662;10.060;2022-12-18T19:10:22;100575.63;;;-5.22;90.45
51972;BME280;37991;49.662;10.060;2022-12-18T19:12:48;100577.38;;;-5.19;90.65
51972;BME280;37991;49.662;10.060;2022-12-18T19:15:32;100573.13;;;-5.19;90.71
51972;BME280;37991;49.662;10.060;2022-12-18T19:17:58;100573.16;;;-5.16;90.36
51972;BME280;37991;49.662;10.060;2022-12-18T19:20:23;100568.03;;;-5.16;90.38
51972;BME280;37991;49.662;10.060;2022-12-18T19:22:49;100563.78;;;-5.15;90.04
51972;BME280;37991;49.662;10.060;2022-12-18T19:25:14;100553.56;;;-5.15;90.58
51972;BME280;37991;49.662;10.060;2022-12-18T19:27:40;100551.81;;;-5.19;90.59
51972;BME280;37991;49.662;10.060;2022-12-18T19:30:06;100549.25;;;-5.19;90.24
51972;BME280;37991;49.662;10.060;2022-12-18T19:32:32;100550.97;;;-5.18;90.33
51972;BME280;37991;49.662;10.060;2022-12-18T19:34:58;100544.16;;;-5.19;90.64
51972;BME280;37991;49.662;10.060;2022-12-18T19:37:23;100551.78;;;-5.21;90.61
51972;BME280;37991;49.662;10.060;2022-12-18T19:39:48;100548.41;;;-5.18;90.62
51972;BME280;37991;49.662;10.060;2022-12-18T19:42:14;100544.97;;;-5.20;90.81
51972;BME280;37991;49.662;10.060;2022-12-18T19:44:39;100554.34;;;-5.22;90.88
51972;BME280;37991;49.662;10.060;2022-12-18T19:47:04;100558.59;;;-5.21;90.75
51972;BME280;37991;49.662;10.060;2022-12-18T19:49:31;100559.47;;;-5.19;90.60
51972;BME280;37991;49.662;10.060;2022-12-18T19:51:57;100577.38;;;-5.19;90.36
51972;BME280;37991;49.662;10.060;2022-12-18T19:54:22;100574.78;;;-5.21;90.79
51972;BME280;37991;49.662;10.060;2022-12-18T19:56:47;100579.00;;;-5.24;90.51
51972;BME280;37991;49.662;10.060;2022-12-18T19:59:13;100585.00;;;-5.22;90.46
51972;BME280;37991;49.662;10.060;2022-12-18T20:01:39;100592.56;;;-5.28;90.37
51972;BME280;37991;49.662;10.060;2022-12-18T20:04:04;100582.38;;;-5.25;90.81
51972;BME280;37991;49.662;10.060;2022-12-18T20:06:48;100581.47;;;-5.30;91.03
51972;BME280;37991;49.662;10.060;2022-12-18T20:09:14;100575.53;;;-5.28;90.84
51972;BME280;37991;49.662;10.060;2022-12-18T20:11:40;100569.56;;;-5.28;90.95
51972;BME280;37991;49.662;10.060;2022-12-18T20:14:05;100570.47;;;-5.26;90.68
51972;BME280;37991;49.662;10.060;2022-12-18T20:16:31;100562.81;;;-5.26;90.74
51972;BME280;37991;49.662;10.060;2022-12-18T20:18:56;100554.28;;;-5.25;90.57
51972;BME280;37991;49.662;10.060;2022-12-18T20:21:22;100547.44;;;-5.29;90.68
51972;BME280;37991;49.662;10.060;2022-12-18T20:23:48;100544.00;;;-5.30;90.51
51972;BME280;37991;49.662;10.060;2022-12-18T20:26:13;100539.69;;;-5.35;91.36
51972;BME280;37991;49.662;10.060;2022-12-18T20:28:39;100540.53;;;-5.33;91.13
51972;BME280;37991;49.662;10.060;2022-12-18T20:31:05;100536.25;;;-5.36;91.05
51972;BME280;37991;49.662;10.060;2022-12-18T20:33:32;100537.16;;;-5.32;91.35
51972;BME280;37991;49.662;10.060;2022-12-18T20:36:06;100522.66;;;-5.35;91.28
51972;BME280;37991;49.662;10.060;2022-12-18T20:38:33;100520.09;;;-5.35;91.25
51972;BME280;37991;49.662;10.060;2022-12-18T20:40:59;100523.50;;;-5.34;91.47
51972;BME280;37991;49.662;10.060;2022-12-18T20:43:27;100526.91;;;-5.34;91.75
51972;BME280;37991;49.662;10.060;2022-12-18T20:46:00;100523.53;;;-5.31;91.66
51972;BME280;37991;49.662;10.060;2022-12-18T20:48:26;100532.91;;;-5.32;91.29
51972;BME280;37991;49.662;10.060;2022-12-18T20:51:03;100532.06;;;-5.32;91.65
51972;BME280;37991;49.662;10.060;2022-12-18T20:53:30;100527.75;;;-5.33;91.75
51972;BME280;37991;49.662;10.060;2022-12-18T20:55:56;100525.16;;;-5.37;91.70
51972;BME280;37991;49.662;10.060;2022-12-18T20:58:21;100532.03;;;-5.35;91.46
51972;BME280;37991;49.662;10.060;2022-12-18T21:00:47;100527.72;;;-5.37;91.56
51972;BME280;37991;49.662;10.060;2022-12-18T21:03:12;100527.72;;;-5.37;91.52
51972;BME280;37991;49.662;10.060;2022-12-18T21:05:37;100514.13;;;-5.35;91.96
51972;BME280;37991;49.662;10.060;2022-12-18T21:08:03;100503.91;;;-5.35;91.51
51972;BME280;37991;49.662;10.060;2022-12-18T21:10:28;100520.94;;;-5.34;91.83
51972;BME280;37991;49.662;10.060;2022-12-18T21:12:54;100529.47;;;-5.35;91.88
51972;BME280;37991;49.662;10.060;2022-12-18T21:15:19;100539.63;;;-5.39;92.13
51972;BME280;37991;49.662;10.060;2022-12-18T21:17:45;100535.34;;;-5.40;91.73
51972;BME280;37991;49.662;10.060;2022-12-18T21:20:12;100556.69;;;-5.36;92.17
51972;BME280;37991;49.662;10.060;2022-12-18T21:22:37;100544.84;;;-5.32;92.19
51972;BME280;37991;49.662;10.060;2022-12-18T21:25:03;100526.09;;;-5.31;92.21
51972;BME280;37991;49.662;10.060;2022-12-18T21:27:29;100515.88;;;-5.31;92.27
51972;BME280;37991;49.662;10.060;2022-12-18T21:29:54;100523.59;;;-5.27;92.34
51972;BME280;37991;49.662;10.060;2022-12-18T21:32:19;100521.06;;;-5.24;92.95
51972;BME280;37991;49.662;10.060;2022-12-18T21:34:45;100527.94;;;-5.23;92.83
51972;BME280;37991;49.662;10.060;2022-12-18T21:37:10;100540.75;;;-5.18;93.09
51972;BME280;37991;49.662;10.060;2022-12-18T21:39:35;100532.28;;;-5.14;93.41
51972;BME280;37991;49.662;10.060;2022-12-18T21:42:01;100541.69;;;-5.11;93.34
51972;BME280;37991;49.662;10.060;2022-12-18T21:44:48;100531.50;;;-5.10;93.56
51972;BME280;37991;49.662;10.060;2022-12-18T21:47:14;100523.88;;;-5.07;93.20
51972;BME280;37991;49.662;10.060;2022-12-18T21:49:39;100526.47;;;-5.04;93.29
51972;BME280;37991;49.662;10.060;2022-12-18T21:52:05;100522.25;;;-4.99;93.22
51972;BME280;37991;49.662;10.060;2022-12-18T21:54:30;100532.50;;;-4.96;93.25
51972;BME280;37991;49.662;10.060;2022-12-18T21:56:58;100529.09;;;-4.96;93.52
51972;BME280;37991;49.662;10.060;2022-12-18T21:59:29;100524.03;;;-4.92;93.23
51972;BME280;37991;49.662;10.060;2022-12-18T22:01:58;100503.59;;;-4.90;93.78
51972;BME280;37991;49.662;10.060;2022-12-18T22:04:24;100499.38;;;-4.86;93.51
51972;BME280;37991;49.662;10.060;2022-12-18T22:06:50;100490.84;;;-4.85;93.78
51972;BME280;37991;49.662;10.060;2022-12-18T22:09:18;100512.28;;;-4.77;93.44
51972;BME280;37991;49.662;10.060;2022-12-18T22:11:44;100509.75;;;-4.74;93.69
51972;BME280;37991;49.662;10.060;2022-12-18T22:14:10;100505.47;;;-4.75;93.54
51972;BME280;37991;49.662;10.060;2022-12-18T22:16:36;100490.16;;;-4.69;93.63
51972;BME280;37991;49.662;10.060;2022-12-18T22:19:01;100479.94;;;-4.69;93.55
51972;BME280;37991;49.662;10.060;2022-12-18T22:21:29;100457.81;;;-4.67;93.61
51972;BME280;37991;49.662;10.060;2022-12-18T22:23:59;100481.75;;;-4.62;93.97
51972;BME280;37991;49.662;10.060;2022-12-18T22:26:27;100492.88;;;-4.55;93.60
51972;BME280;37991;49.662;10.060;2022-12-18T22:28:53;100504.84;;;-4.51;93.46
51972;BME280;37991;49.662;10.060;2022-12-18T22:31:37;100508.28;;;-4.48;93.40
51972;BME280;37991;49.662;10.060;2022-12-18T22:34:04;100505.78;;;-4.46;93.09
51972;BME280;37991;49.662;10.060;2022-12-18T22:36:39;100512.59;;;-4.44;92.91
51972;BME280;37991;49.662;10.060;2022-12-18T22:39:06;100519.47;;;-4.39;92.83
51972;BME280;37991;49.662;10.060;2022-12-18T22:41:33;100528.84;;;-4.40;93.26
51972;BME280;37991;49.662;10.060;2022-12-18T22:43:59;100512.69;;;-4.36;92.81
51972;BME280;37991;49.662;10.060;2022-12-18T22:46:24;100509.31;;;-4.30;93.34
51972;BME280;37991;49.662;10.060;2022-12-18T22:48:51;100501.66;;;-4.29;93.07
51972;BME280;37991;49.662;10.060;2022-12-18T22:51:18;100494.88;;;-4.24;92.83
51972;BME280;37991;49.662;10.060;2022-12-18T22:53:43;100491.50;;;-4.21;92.89
51972;BME280;37991;49.662;10.060;2022-12-18T22:56:09;100492.38;;;-4.17;92.39
51972;BME280;37991;49.662;10.060;2022-12-18T22:58:35;100500.03;;;-4.16;92.36
51972;BME280;37991;49.662;10.060;2022-12-18T23:01:00;100499.22;;;-4.12;92.04
51972;BME280;37991;49.662;10.060;2022-12-18T23:03:26;100490.72;;;-4.09;92.11
51972;BME280;37991;49.662;10.060;2022-12-18T23:05:51;100498.41;;;-4.11;92.29
51972;BME280;37991;49.662;10.060;2022-12-18T23:08:17;100505.19;;;-4.13;92.50
51972;BME280;37991;49.662;10.060;2022-12-18T23:10:42;100508.59;;;-4.12;92.76
51972;BME280;37991;49.662;10.060;2022-12-18T23:13:08;100509.50;;;-4.07;92.89
51972;BME280;37991;49.662;10.060;2022-12-18T23:15:33;100510.34;;;-4.05;92.40
51972;BME280;37991;49.662;10.060;2022-12-18T23:17:59;100508.66;;;-4.08;92.50
51972;BME280;37991;49.662;10.060;2022-12-18T23:20:26;100500.13;;;-4.05;92.26
51972;BME280;37991;49.662;10.060;2022-12-18T23:22:52;100489.91;;;-4.02;92.60
51972;BME280;37991;49.662;10.060;2022-12-18T23:25:17;100481.41;;;-4.01;92.11
51972;BME280;37991;49.662;10.060;2022-12-18T23:27:42;100472.00;;;-4.02;91.86
51972;BME280;37991;49.662;10.060;2022-12-18T23:30:08;100467.78;;;-3.97;91.81
51972;BME280;37991;49.662;10.060;2022-12-18T23:32:35;100490.81;;;-3.97;91.86
51972;BME280;37991;49.662;10.060;2022-12-18T23:35:01;100486.53;;;-3.97;91.91
51972;BME280;37991;49.662;10.060;2022-12-18T23:37:26;100490.84;;;-3.95;91.83
51972;BME280;37991;49.662;10.060;2022-12-18T23:39:51;100483.13;;;-3.99;92.05
51972;BME280;37991;49.662;10.060;2022-12-18T23:42:17;100475.47;;;-3.95;92.19
51972;BME280;37991;49.662;10.060;2022-12-18T23:44:43;100480.59;;;-3.95;91.93
51972;BME280;37991;49.662;10.060;2022-12-18T23:47:08;100478.06;;;-3.92;91.93
51972;BME280;37991;49.662;10.060;2022-12-18T23:49:33;100476.34;;;-3.90;91.67
51972;BME280;37991;49.662;10.060;2022-12-18T23:51:59;100462.66;;;-3.94;91.73
51972;BME280;37991;49.662;10.060;2022-12-18T23:54:24;100458.41;;;-3.93;92.09
51972;BME280;37991;49.662;10.060;2022-12-18T23:56:49;100459.25;;;-3.94;92.28
51972;BME280;37991;49.662;10.060;2022-12-18T23:59:15;100457.56;;;-3.94;92.01
